createdAt,value
2022-11-24T00:00:28.757Z,0.00
2022-11-24T00:01:28.750Z,0.00
2022-11-24T00:02:28.926Z,0.00
2022-11-24T00:03:28.762Z,0.00
2022-11-24T00:04:28.738Z,0.00
2022-11-24T00:05:28.732Z,0.00
2022-11-24T00:06:28.729Z,0.00
2022-11-24T00:07:28.781Z,0.00
2022-11-24T00:08:28.742Z,0.00
2022-11-24T00:09:28.711Z,0.00
2022-11-24T00:10:28.712Z,0.00
2022-11-24T00:11:28.712Z,0.00
2022-11-24T00:12:28.705Z,0.00
2022-11-24T00:13:28.695Z,0.00
2022-11-24T00:14:28.694Z,0.00
2022-11-24T00:15:28.687Z,0.00
2022-11-24T00:16:28.743Z,0.00
2022-11-24T00:17:28.681Z,0.00
2022-11-24T00:18:28.678Z,0.00
2022-11-24T00:19:28.668Z,0.00
2022-11-24T00:20:28.668Z,0.00
2022-11-24T00:21:28.663Z,0.00
2022-11-24T00:22:28.662Z,0.00
2022-11-24T00:23:28.658Z,0.00
2022-11-24T00:24:28.672Z,0.00
2022-11-24T00:25:28.640Z,0.00
2022-11-24T00:26:28.639Z,0.00
2022-11-24T00:27:28.633Z,0.00
2022-11-24T00:28:28.629Z,0.00
2022-11-24T00:29:28.621Z,0.00
2022-11-24T00:30:28.856Z,0.00
2022-11-24T00:31:28.700Z,0.00
2022-11-24T00:32:28.614Z,0.00
2022-11-24T00:33:28.609Z,0.00
2022-11-24T00:34:28.600Z,0.00
2022-11-24T00:35:28.595Z,0.00
2022-11-24T00:36:28.593Z,0.00
2022-11-24T00:37:28.592Z,0.00
2022-11-24T00:38:28.584Z,0.00
2022-11-24T00:39:28.583Z,0.00
2022-11-24T00:40:33.612Z,0.00
2022-11-24T00:41:28.566Z,0.00
2022-11-24T00:42:28.565Z,0.00
2022-11-24T00:43:28.559Z,0.00
2022-11-24T00:44:28.555Z,0.00
2022-11-24T00:45:28.553Z,0.00
2022-11-24T00:46:28.737Z,0.00
2022-11-24T00:47:28.543Z,0.00
2022-11-24T00:48:28.539Z,0.00
2022-11-24T00:49:28.535Z,0.00
2022-11-24T00:50:28.526Z,0.00
2022-11-24T00:51:28.529Z,0.00
2022-11-24T00:52:28.520Z,0.00
2022-11-24T00:53:28.516Z,0.00
2022-11-24T00:54:28.509Z,0.00
2022-11-24T00:55:28.506Z,0.00
2022-11-24T00:56:28.520Z,0.00
2022-11-24T00:57:28.494Z,0.00
2022-11-24T00:58:28.491Z,0.00
2022-11-24T00:59:28.493Z,0.00
2022-11-24T01:00:28.484Z,0.00
2022-11-24T01:01:28.586Z,0.00
2022-11-24T01:02:28.503Z,0.00
2022-11-24T01:03:28.468Z,0.00
2022-11-24T01:04:28.461Z,0.00
2022-11-24T01:05:28.467Z,0.00
2022-11-24T01:06:28.452Z,0.00
2022-11-24T01:07:28.491Z,0.00
2022-11-24T01:08:28.449Z,0.00
2022-11-24T01:09:28.442Z,0.00
2022-11-24T01:10:28.432Z,0.00
2022-11-24T01:11:28.439Z,0.00
2022-11-24T01:12:28.456Z,0.00
2022-11-24T01:13:28.421Z,0.00
2022-11-24T01:14:28.416Z,0.00
2022-11-24T01:15:28.495Z,0.00
2022-11-24T01:16:28.423Z,0.00
2022-11-24T01:17:28.403Z,0.00
2022-11-24T01:18:28.397Z,0.00
2022-11-24T01:19:28.393Z,0.00
2022-11-24T01:20:28.392Z,0.00
2022-11-24T01:21:28.387Z,0.00
2022-11-24T01:22:28.379Z,0.00
2022-11-24T01:23:28.376Z,0.00
2022-11-24T01:24:28.370Z,0.00
2022-11-24T01:25:28.371Z,0.00
2022-11-24T01:26:28.361Z,0.00
2022-11-24T01:27:28.359Z,0.00
2022-11-24T01:28:28.372Z,0.00
2022-11-24T01:29:28.348Z,0.00
2022-11-24T01:30:28.591Z,0.00
2022-11-24T01:31:28.408Z,0.00
2022-11-24T01:32:28.334Z,0.00
2022-11-24T01:33:28.329Z,0.00
2022-11-24T01:34:28.323Z,0.00
2022-11-24T01:35:28.322Z,0.00
2022-11-24T01:36:28.315Z,0.00
2022-11-24T01:37:28.320Z,0.00
2022-11-24T01:38:28.306Z,0.00
2022-11-24T01:39:28.302Z,0.00
2022-11-24T01:40:28.295Z,0.00
2022-11-24T01:41:28.294Z,0.00
2022-11-24T01:42:28.287Z,0.00
2022-11-24T01:43:28.284Z,0.00
2022-11-24T01:44:28.298Z,0.00
2022-11-24T01:45:28.274Z,0.00
2022-11-24T01:46:28.304Z,0.00
2022-11-24T01:47:28.264Z,0.00
2022-11-24T01:48:28.288Z,0.00
2022-11-24T01:49:28.259Z,0.00
2022-11-24T01:50:28.252Z,0.00
2022-11-24T01:51:28.247Z,0.00
2022-11-24T01:52:28.240Z,0.00
2022-11-24T01:53:28.238Z,0.00
2022-11-24T01:54:28.234Z,0.00
2022-11-24T01:55:28.226Z,0.00
2022-11-24T01:56:28.222Z,0.00
2022-11-24T01:57:28.218Z,0.00
2022-11-24T01:58:28.215Z,0.00
2022-11-24T01:59:28.209Z,0.00
2022-11-24T02:00:28.226Z,0.00
2022-11-24T02:01:28.253Z,0.00
2022-11-24T02:02:28.251Z,0.00
2022-11-24T02:03:28.196Z,0.00
2022-11-24T02:04:28.190Z,0.00
2022-11-24T02:05:28.181Z,0.00
2022-11-24T02:06:28.176Z,0.00
2022-11-24T02:07:28.222Z,0.00
2022-11-24T02:08:28.168Z,0.00
2022-11-24T02:09:28.164Z,0.00
2022-11-24T02:10:28.162Z,0.00
2022-11-24T02:11:28.158Z,0.00
2022-11-24T02:12:28.149Z,0.00
2022-11-24T02:13:28.146Z,0.00
2022-11-24T02:14:28.142Z,0.00
2022-11-24T02:15:28.136Z,0.00
2022-11-24T02:16:28.150Z,0.00
2022-11-24T02:17:28.125Z,0.00
2022-11-24T02:18:28.120Z,0.00
2022-11-24T02:19:28.121Z,0.00
2022-11-24T02:20:28.111Z,0.00
2022-11-24T02:21:28.110Z,0.00
2022-11-24T02:22:28.102Z,0.00
2022-11-24T02:23:28.099Z,0.00
2022-11-24T02:24:28.090Z,0.00
2022-11-24T02:25:28.088Z,0.00
2022-11-24T02:26:28.085Z,0.00
2022-11-24T02:27:28.084Z,0.00
2022-11-24T02:28:28.073Z,0.00
2022-11-24T02:29:28.071Z,0.00
2022-11-24T02:30:28.068Z,0.00
2022-11-24T02:31:28.172Z,0.00
2022-11-24T02:32:28.075Z,0.00
2022-11-24T02:33:28.052Z,0.00
2022-11-24T02:34:28.050Z,0.00
2022-11-24T02:35:28.247Z,0.00
2022-11-24T02:36:28.039Z,0.00
2022-11-24T02:37:28.035Z,0.00
2022-11-24T02:38:28.028Z,0.00
2022-11-24T02:39:28.025Z,0.00
2022-11-24T02:40:28.021Z,0.00
2022-11-24T02:41:28.023Z,0.00
2022-11-24T02:42:28.011Z,0.00
2022-11-24T02:43:28.008Z,0.00
2022-11-24T02:44:28.001Z,0.00
2022-11-24T02:45:28.000Z,0.00
2022-11-24T02:46:28.081Z,0.00
2022-11-24T02:47:27.990Z,0.00
2022-11-24T02:48:28.010Z,0.00
2022-11-24T02:49:27.984Z,0.00
2022-11-24T02:50:27.978Z,0.00
2022-11-24T02:51:27.973Z,0.00
2022-11-24T02:52:27.967Z,0.00
2022-11-24T02:53:27.965Z,0.00
2022-11-24T02:54:27.957Z,0.00
2022-11-24T02:55:27.956Z,0.00
2022-11-24T02:56:27.950Z,0.00
2022-11-24T02:57:27.943Z,0.00
2022-11-24T02:58:27.942Z,0.00
2022-11-24T02:59:27.938Z,0.00
2022-11-24T03:00:27.933Z,0.00
2022-11-24T03:01:27.983Z,0.00
2022-11-24T03:02:27.931Z,0.00
2022-11-24T03:03:27.922Z,0.00
2022-11-24T03:04:27.935Z,0.00
2022-11-24T03:05:27.918Z,0.00
2022-11-24T03:06:27.909Z,0.00
2022-11-24T03:07:27.950Z,0.00
2022-11-24T03:08:27.897Z,0.00
2022-11-24T03:09:27.891Z,0.00
2022-11-24T03:10:27.891Z,0.00
2022-11-24T03:11:27.886Z,0.00
2022-11-24T03:12:27.876Z,0.00
2022-11-24T03:13:27.894Z,0.00
2022-11-24T03:14:27.878Z,0.00
2022-11-24T03:15:27.868Z,0.00
2022-11-24T03:16:27.930Z,0.00
2022-11-24T03:17:27.858Z,0.00
2022-11-24T03:18:27.851Z,0.00
2022-11-24T03:19:27.846Z,0.00
2022-11-24T03:20:27.863Z,0.00
2022-11-24T03:21:27.837Z,0.00
2022-11-24T03:22:27.831Z,0.00
2022-11-24T03:23:27.828Z,0.00
2022-11-24T03:24:27.822Z,0.00
2022-11-24T03:25:27.819Z,0.00
2022-11-24T03:26:27.817Z,0.00
2022-11-24T03:27:27.819Z,0.00
2022-11-24T03:28:27.805Z,0.00
2022-11-24T03:29:27.800Z,0.00
2022-11-24T03:30:27.796Z,0.00
2022-11-24T03:31:27.963Z,0.00
2022-11-24T03:32:27.787Z,0.00
2022-11-24T03:33:27.785Z,0.00
2022-11-24T03:34:27.779Z,0.00
2022-11-24T03:35:27.778Z,0.00
2022-11-24T03:36:27.789Z,0.00
2022-11-24T03:37:27.766Z,0.00
2022-11-24T03:38:27.763Z,0.00
2022-11-24T03:39:27.757Z,0.00
2022-11-24T03:40:27.760Z,0.00
2022-11-24T03:41:27.750Z,0.00
2022-11-24T03:42:27.747Z,0.00
2022-11-24T03:43:27.738Z,0.00
2022-11-24T03:44:27.740Z,0.00
2022-11-24T03:45:45.382Z,0.00
2022-11-24T03:46:27.823Z,0.00
2022-11-24T03:47:27.724Z,0.00
2022-11-24T03:48:27.721Z,0.00
2022-11-24T03:49:27.713Z,0.00
2022-11-24T03:50:27.709Z,0.00
2022-11-24T03:51:27.702Z,0.00
2022-11-24T03:52:27.718Z,0.00
2022-11-24T03:53:27.692Z,0.00
2022-11-24T03:54:27.692Z,0.00
2022-11-24T03:55:27.684Z,0.00
2022-11-24T03:56:27.683Z,0.00
2022-11-24T03:57:27.677Z,0.00
2022-11-24T03:58:27.672Z,0.00
2022-11-24T03:59:27.667Z,0.00
2022-11-24T04:00:27.666Z,0.00
2022-11-24T04:01:27.681Z,0.00
2022-11-24T04:02:27.738Z,0.00
2022-11-24T04:03:27.647Z,0.00
2022-11-24T04:04:27.649Z,0.00
2022-11-24T04:05:27.641Z,0.00
2022-11-24T04:06:27.640Z,0.00
2022-11-24T04:07:27.647Z,0.00
2022-11-24T04:08:27.649Z,0.00
2022-11-24T04:09:27.623Z,0.00
2022-11-24T04:10:27.621Z,0.00
2022-11-24T04:11:27.614Z,0.00
2022-11-24T04:12:27.611Z,0.00
2022-11-24T04:13:27.606Z,0.00
2022-11-24T04:14:27.606Z,0.00
2022-11-24T04:15:27.606Z,0.00
2022-11-24T04:16:27.651Z,0.00
2022-11-24T04:17:27.591Z,0.00
2022-11-24T04:18:27.591Z,0.00
2022-11-24T04:19:27.583Z,0.00
2022-11-24T04:20:27.575Z,0.00
2022-11-24T04:21:27.569Z,0.00
2022-11-24T04:22:27.568Z,0.00
2022-11-24T04:23:27.562Z,0.00
2022-11-24T04:24:27.582Z,0.00
2022-11-24T04:25:27.554Z,0.00
2022-11-24T04:26:27.551Z,0.00
2022-11-24T04:27:27.545Z,0.00
2022-11-24T04:28:27.544Z,0.00
2022-11-24T04:29:27.536Z,0.00
2022-11-24T04:30:27.534Z,0.00
2022-11-24T04:31:27.590Z,0.00
2022-11-24T04:32:27.527Z,0.00
2022-11-24T04:33:27.518Z,0.00
2022-11-24T04:34:27.515Z,0.00
2022-11-24T04:35:27.508Z,0.00
2022-11-24T04:36:27.506Z,0.00
2022-11-24T04:37:27.503Z,0.00
2022-11-24T04:39:20.106Z,0.00
2022-11-24T04:39:28.825Z,0.00
2022-11-24T04:40:27.860Z,0.00
2022-11-24T04:41:27.482Z,0.00
2022-11-24T04:42:27.480Z,0.00
2022-11-24T04:43:27.474Z,0.00
2022-11-24T04:44:27.472Z,0.00
2022-11-24T04:45:27.468Z,0.00
2022-11-24T04:46:27.500Z,0.00
2022-11-24T04:47:27.462Z,0.00
2022-11-24T04:48:27.456Z,0.00
2022-11-24T04:49:27.448Z,0.00
2022-11-24T04:50:27.457Z,0.00
2022-11-24T04:51:27.442Z,0.00
2022-11-24T04:52:27.438Z,0.00
2022-11-24T04:53:27.434Z,0.00
2022-11-24T04:54:27.426Z,0.00
2022-11-24T04:55:27.431Z,0.00
2022-11-24T04:56:27.441Z,0.00
2022-11-24T04:57:27.416Z,0.00
2022-11-24T04:58:27.411Z,0.00
2022-11-24T04:59:27.404Z,0.00
2022-11-24T05:00:27.401Z,0.00
2022-11-24T05:01:27.452Z,0.00
2022-11-24T05:02:27.393Z,0.00
2022-11-24T05:03:27.386Z,0.00
2022-11-24T05:04:27.477Z,0.00
2022-11-24T05:05:27.380Z,0.00
2022-11-24T05:06:27.374Z,0.00
2022-11-24T05:07:27.432Z,0.00
2022-11-24T05:08:27.371Z,0.00
2022-11-24T05:09:47.913Z,0.00
2022-11-24T05:10:27.359Z,0.00
2022-11-24T05:11:27.364Z,0.00
2022-11-24T05:12:27.372Z,0.00
2022-11-24T05:13:27.346Z,0.00
2022-11-24T05:14:27.349Z,0.00
2022-11-24T05:15:27.333Z,0.00
2022-11-24T05:16:27.469Z,0.00
2022-11-24T05:17:27.326Z,0.00
2022-11-24T05:18:27.321Z,0.00
2022-11-24T05:19:31.237Z,0.00
2022-11-24T05:20:27.316Z,0.00
2022-11-24T05:21:27.305Z,0.00
2022-11-24T05:22:27.303Z,0.00
2022-11-24T05:23:27.298Z,0.00
2022-11-24T05:24:27.296Z,0.00
2022-11-24T05:25:27.288Z,0.00
2022-11-24T05:26:27.286Z,0.00
2022-11-24T05:27:27.282Z,0.00
2022-11-24T05:28:27.298Z,0.00
2022-11-24T05:29:27.273Z,0.00
2022-11-24T05:30:27.271Z,0.00
2022-11-24T05:31:27.301Z,0.00
2022-11-24T05:32:27.263Z,0.00
2022-11-24T05:33:27.255Z,0.00
2022-11-24T05:34:27.254Z,0.00
2022-11-24T05:35:27.252Z,0.00
2022-11-24T05:36:27.249Z,0.00
2022-11-24T05:37:27.239Z,0.00
2022-11-24T05:38:27.252Z,0.00
2022-11-24T05:39:27.229Z,0.00
2022-11-24T05:40:27.486Z,0.00
2022-11-24T05:41:27.224Z,0.00
2022-11-24T05:42:27.223Z,0.00
2022-11-24T05:43:27.218Z,0.00
2022-11-24T05:44:27.229Z,0.00
2022-11-24T05:45:27.208Z,0.00
2022-11-24T05:46:27.249Z,0.00
2022-11-24T05:47:27.214Z,0.00
2022-11-24T05:48:27.197Z,0.00
2022-11-24T05:49:27.194Z,0.00
2022-11-24T05:50:27.187Z,0.00
2022-11-24T05:51:27.177Z,0.00
2022-11-24T05:52:27.177Z,0.00
2022-11-24T05:53:27.206Z,0.00
2022-11-24T05:54:27.167Z,0.00
2022-11-24T05:55:27.163Z,0.00
2022-11-24T05:56:27.198Z,0.00
2022-11-24T05:57:27.151Z,0.00
2022-11-24T05:58:27.152Z,0.00
2022-11-24T05:59:27.149Z,0.00
2022-11-24T06:00:27.253Z,0.00
2022-11-24T06:01:27.143Z,0.00
2022-11-24T06:02:27.287Z,0.00
2022-11-24T06:03:27.127Z,0.00
2022-11-24T06:04:27.128Z,0.00
2022-11-24T06:05:27.117Z,0.00
2022-11-24T06:06:27.114Z,0.00
2022-11-24T06:07:27.182Z,0.00
2022-11-24T06:08:31.117Z,0.00
2022-11-24T06:09:27.115Z,0.00
2022-11-24T06:10:27.106Z,0.00
2022-11-24T06:11:27.099Z,0.00
2022-11-24T06:12:27.092Z,0.00
2022-11-24T06:13:27.169Z,0.00
2022-11-24T06:14:27.080Z,0.00
2022-11-24T06:15:27.072Z,0.00
2022-11-24T06:16:27.196Z,0.00
2022-11-24T06:17:27.065Z,0.00
2022-11-24T06:18:27.077Z,0.00
2022-11-24T06:19:27.058Z,0.00
2022-11-24T06:20:32.258Z,0.00
2022-11-24T06:21:27.050Z,0.00
2022-11-24T06:22:27.044Z,0.00
2022-11-24T06:23:27.038Z,0.00
2022-11-24T06:24:27.036Z,0.00
2022-11-24T06:25:27.031Z,0.00
2022-11-24T06:26:27.027Z,0.00
2022-11-24T06:27:27.026Z,0.00
2022-11-24T06:28:27.020Z,0.00
2022-11-24T06:29:27.013Z,0.00
2022-11-24T06:30:27.013Z,0.00
2022-11-24T06:31:27.043Z,0.00
2022-11-24T06:32:27.026Z,0.00
2022-11-24T06:33:26.994Z,0.00
2022-11-24T06:34:26.997Z,0.00
2022-11-24T06:35:26.995Z,0.00
2022-11-24T06:36:26.985Z,0.00
2022-11-24T06:37:26.979Z,0.00
2022-11-24T06:38:26.976Z,0.00
2022-11-24T06:39:26.970Z,0.00
2022-11-24T06:40:26.967Z,0.00
2022-11-24T06:41:26.959Z,0.00
2022-11-24T06:42:26.956Z,0.00
2022-11-24T06:43:26.956Z,4.00
2022-11-24T06:44:26.949Z,4.00
2022-11-24T06:45:27.044Z,0.00
2022-11-24T06:46:26.939Z,0.00
2022-11-24T06:47:26.934Z,0.00
2022-11-24T06:48:26.957Z,0.00
2022-11-24T06:49:26.924Z,4.00
2022-11-24T06:50:32.075Z,0.00
2022-11-24T06:51:26.918Z,4.00
2022-11-24T06:52:26.915Z,4.00
2022-11-24T06:53:26.910Z,4.00
2022-11-24T06:54:26.906Z,4.00
2022-11-24T06:55:26.901Z,4.00
2022-11-24T06:56:26.901Z,4.00
2022-11-24T06:57:26.893Z,4.00
2022-11-24T06:58:26.888Z,4.00
2022-11-24T06:59:26.883Z,8.00
2022-11-24T07:00:26.884Z,4.00
2022-11-24T07:01:26.951Z,4.00
2022-11-24T07:02:26.874Z,8.00
2022-11-24T07:03:26.963Z,8.00
2022-11-24T07:04:26.917Z,8.00
2022-11-24T07:05:26.859Z,8.00
2022-11-24T07:06:26.856Z,8.00
2022-11-24T07:07:26.907Z,8.00
2022-11-24T07:08:26.847Z,8.00
2022-11-24T07:09:26.840Z,8.00
2022-11-24T07:10:26.839Z,12.00
2022-11-24T07:11:26.833Z,12.00
2022-11-24T07:12:26.828Z,12.00
2022-11-24T07:13:26.825Z,20.00
2022-11-24T07:14:26.819Z,24.00
2022-11-24T07:15:26.818Z,28.00
2022-11-24T07:16:26.901Z,28.00
2022-11-24T07:17:26.803Z,28.00
2022-11-24T07:18:26.802Z,32.00
2022-11-24T07:19:26.796Z,36.00
2022-11-24T07:20:26.817Z,32.00
2022-11-24T07:21:26.785Z,40.00
2022-11-24T07:22:26.783Z,36.00
2022-11-24T07:23:26.779Z,32.00
2022-11-24T07:24:26.777Z,24.00
2022-11-24T07:25:26.768Z,24.00
2022-11-24T07:26:26.774Z,24.00
2022-11-24T07:27:26.809Z,24.00
2022-11-24T07:28:26.758Z,20.00
2022-11-24T07:29:26.758Z,16.00
2022-11-24T07:30:26.757Z,16.00
2022-11-24T07:31:26.827Z,12.00
2022-11-24T07:32:26.746Z,12.00
2022-11-24T07:33:26.734Z,12.00
2022-11-24T07:34:26.738Z,12.00
2022-11-24T07:35:26.728Z,12.00
2022-11-24T07:36:26.753Z,12.00
2022-11-24T07:37:31.036Z,16.00
2022-11-24T07:38:26.718Z,20.00
2022-11-24T07:39:26.707Z,20.00
2022-11-24T07:40:26.948Z,20.00
2022-11-24T07:41:26.763Z,16.00
2022-11-24T07:42:26.697Z,16.00
2022-11-24T07:43:26.693Z,12.00
2022-11-24T07:44:26.688Z,8.00
2022-11-24T07:45:26.790Z,12.00
2022-11-24T07:46:26.752Z,8.00
2022-11-24T07:47:26.678Z,8.00
2022-11-24T07:48:26.675Z,8.00
2022-11-24T07:49:26.669Z,8.00
2022-11-24T07:50:26.744Z,12.00
2022-11-24T07:51:26.662Z,12.00
2022-11-24T07:52:26.718Z,12.00
2022-11-24T07:53:26.647Z,12.00
2022-11-24T07:54:26.643Z,12.00
2022-11-24T07:55:26.641Z,16.00
2022-11-24T07:56:26.637Z,12.00
2022-11-24T07:57:26.631Z,12.00
2022-11-24T07:58:32.168Z,16.00
2022-11-24T07:59:26.623Z,20.00
2022-11-24T08:00:26.726Z,24.00
2022-11-24T08:01:26.716Z,20.00
2022-11-24T08:02:26.606Z,12.00
2022-11-24T08:03:26.666Z,16.00
2022-11-24T08:04:26.601Z,20.00
2022-11-24T08:05:26.598Z,12.00
2022-11-24T08:06:31.843Z,20.00
2022-11-24T08:07:26.680Z,20.00
2022-11-24T08:08:26.606Z,20.00
2022-11-24T08:09:26.578Z,24.00
2022-11-24T08:10:26.655Z,24.00
2022-11-24T08:11:26.582Z,28.00
2022-11-24T08:12:26.574Z,36.00
2022-11-24T08:13:26.562Z,32.00
2022-11-24T08:14:26.557Z,32.00
2022-11-24T08:15:26.556Z,28.00
2022-11-24T08:16:26.602Z,32.00
2022-11-24T08:17:26.543Z,36.00
2022-11-24T08:18:26.538Z,36.00
2022-11-24T08:19:26.539Z,36.00
2022-11-24T08:20:26.532Z,28.00
2022-11-24T08:21:26.529Z,32.00
2022-11-24T08:22:26.520Z,28.00
2022-11-24T08:23:26.522Z,36.00
2022-11-24T08:24:26.538Z,48.00
2022-11-24T08:25:26.509Z,52.00
2022-11-24T08:26:26.508Z,56.00
2022-11-24T08:27:26.503Z,68.00
2022-11-24T08:28:26.497Z,72.00
2022-11-24T08:29:26.493Z,72.00
2022-11-24T08:30:26.485Z,76.00
2022-11-24T08:31:26.556Z,84.00
2022-11-24T08:32:26.532Z,88.00
2022-11-24T08:33:26.473Z,96.00
2022-11-24T08:34:26.467Z,84.00
2022-11-24T08:35:26.468Z,68.00
2022-11-24T08:36:26.460Z,64.00
2022-11-24T08:37:26.456Z,56.00
2022-11-24T08:38:26.452Z,56.00
2022-11-24T08:39:26.450Z,52.00
2022-11-24T08:40:26.469Z,52.00
2022-11-24T08:41:26.446Z,48.00
2022-11-24T08:42:26.435Z,56.00
2022-11-24T08:43:26.436Z,60.00
2022-11-24T08:44:26.425Z,64.00
2022-11-24T08:45:28.599Z,84.00
2022-11-24T08:46:26.549Z,104.00
2022-11-24T08:47:26.423Z,112.00
2022-11-24T08:48:26.416Z,104.00
2022-11-24T08:49:26.406Z,112.00
2022-11-24T08:50:26.397Z,128.00
2022-11-24T08:51:26.553Z,108.00
2022-11-24T08:52:26.388Z,96.00
2022-11-24T08:53:26.387Z,80.00
2022-11-24T08:54:26.384Z,84.00
2022-11-24T08:55:26.389Z,88.00
2022-11-24T08:56:26.400Z,80.00
2022-11-24T08:57:26.371Z,80.00
2022-11-24T08:58:26.369Z,92.00
2022-11-24T08:59:26.383Z,88.00
2022-11-24T09:00:26.356Z,92.00
2022-11-24T09:01:26.397Z,104.00
2022-11-24T09:02:26.347Z,92.00
2022-11-24T09:03:26.347Z,84.00
2022-11-24T09:04:26.395Z,84.00
2022-11-24T09:05:51.281Z,80.00
2022-11-24T09:06:26.328Z,84.00
2022-11-24T09:07:26.388Z,92.00
2022-11-24T09:08:26.324Z,92.00
2022-11-24T09:09:26.323Z,92.00
2022-11-24T09:10:26.313Z,80.00
2022-11-24T09:11:26.310Z,84.00
2022-11-24T09:12:26.329Z,72.00
2022-11-24T09:13:26.301Z,76.00
2022-11-24T09:14:26.295Z,84.00
2022-11-24T09:15:26.295Z,100.00
2022-11-24T09:16:26.420Z,124.00
2022-11-24T09:17:26.285Z,132.00
2022-11-24T09:18:30.107Z,136.00
2022-11-24T09:19:26.275Z,152.00
2022-11-24T09:20:26.286Z,140.00
2022-11-24T09:21:26.266Z,124.00
2022-11-24T09:22:26.265Z,144.00
2022-11-24T09:23:26.257Z,156.00
2022-11-24T09:24:26.255Z,188.00
2022-11-24T09:25:26.249Z,168.00
2022-11-24T09:26:26.258Z,168.00
2022-11-24T09:27:26.253Z,280.00
2022-11-24T09:28:26.260Z,304.00
2022-11-24T09:29:26.234Z,240.00
2022-11-24T09:30:26.228Z,264.00
2022-11-24T09:31:26.321Z,228.00
2022-11-24T09:32:26.217Z,188.00
2022-11-24T09:33:26.216Z,140.00
2022-11-24T09:34:26.209Z,128.00
2022-11-24T09:35:26.210Z,136.00
2022-11-24T09:36:26.212Z,140.00
2022-11-24T09:37:31.229Z,148.00
2022-11-24T09:38:26.197Z,168.00
2022-11-24T09:39:26.191Z,184.00
2022-11-24T09:40:26.185Z,196.00
2022-11-24T09:41:26.380Z,224.00
2022-11-24T09:42:26.179Z,192.00
2022-11-24T09:43:26.172Z,172.00
2022-11-24T09:44:26.197Z,184.00
2022-11-24T09:45:48.989Z,168.00
2022-11-24T09:46:26.208Z,168.00
2022-11-24T09:47:26.160Z,220.00
2022-11-24T09:48:26.152Z,236.00
2022-11-24T09:49:26.147Z,284.00
2022-11-24T09:50:26.144Z,264.00
2022-11-24T09:51:26.141Z,324.00
2022-11-24T09:52:26.135Z,264.00
2022-11-24T09:53:26.130Z,244.00
2022-11-24T09:54:26.124Z,292.00
2022-11-24T09:55:26.123Z,352.00
2022-11-24T09:56:26.121Z,392.00
2022-11-24T09:57:26.112Z,340.00
2022-11-24T09:58:26.137Z,456.00
2022-11-24T09:59:26.104Z,456.00
2022-11-24T10:00:26.120Z,388.00
2022-11-24T10:01:26.176Z,392.00
2022-11-24T10:02:26.089Z,412.00
2022-11-24T10:03:26.088Z,364.00
2022-11-24T10:04:26.163Z,448.00
2022-11-24T10:05:26.080Z,484.00
2022-11-24T10:06:26.077Z,432.00
2022-11-24T10:07:26.096Z,324.00
2022-11-24T10:08:26.063Z,388.00
2022-11-24T10:09:26.069Z,344.00
2022-11-24T10:10:26.135Z,344.00
2022-11-24T10:11:26.055Z,380.00
2022-11-24T10:12:26.050Z,320.00
2022-11-24T10:13:26.058Z,328.00
2022-11-24T10:14:26.047Z,280.00
2022-11-24T10:15:26.037Z,288.00
2022-11-24T10:16:26.135Z,352.00
2022-11-24T10:17:26.032Z,352.00
2022-11-24T10:18:26.024Z,284.00
2022-11-24T10:19:36.256Z,272.00
2022-11-24T10:20:26.013Z,224.00
2022-11-24T10:21:26.011Z,240.00
2022-11-24T10:22:26.007Z,232.00
2022-11-24T10:23:26.003Z,256.00
2022-11-24T10:24:25.997Z,264.00
2022-11-24T10:25:26.001Z,300.00
2022-11-24T10:26:25.988Z,328.00
2022-11-24T10:27:25.987Z,288.00
2022-11-24T10:28:25.988Z,308.00
2022-11-24T10:29:25.985Z,320.00
2022-11-24T10:30:25.972Z,244.00
2022-11-24T10:31:25.993Z,264.00
2022-11-24T10:32:25.988Z,324.00
2022-11-24T10:33:30.614Z,400.00
2022-11-24T10:34:25.956Z,384.00
2022-11-24T10:35:25.955Z,372.00
2022-11-24T10:36:25.946Z,312.00
2022-11-24T10:37:26.049Z,272.00
2022-11-24T10:38:25.939Z,260.00
2022-11-24T10:39:25.936Z,292.00
2022-11-24T10:40:49.109Z,272.00
2022-11-24T10:41:25.928Z,340.00
2022-11-24T10:42:25.921Z,248.00
2022-11-24T10:43:25.923Z,232.00
2022-11-24T10:44:25.913Z,216.00
2022-11-24T10:45:25.911Z,304.00
2022-11-24T10:46:26.123Z,280.00
2022-11-24T10:47:25.910Z,268.00
2022-11-24T10:48:25.920Z,284.00
2022-11-24T10:49:25.893Z,260.00
2022-11-24T10:50:25.895Z,348.00
2022-11-24T10:51:25.909Z,276.00
2022-11-24T10:52:25.920Z,236.00
2022-11-24T10:53:25.885Z,324.00
2022-11-24T10:54:25.876Z,324.00
2022-11-24T10:55:25.871Z,272.00
2022-11-24T10:56:25.864Z,280.00
2022-11-24T10:57:25.862Z,264.00
2022-11-24T10:58:25.855Z,252.00
2022-11-24T10:59:25.858Z,292.00
2022-11-24T11:00:25.849Z,352.00
2022-11-24T11:01:25.933Z,332.00
2022-11-24T11:02:25.876Z,232.00
2022-11-24T11:03:25.837Z,288.00
2022-11-24T11:04:25.854Z,296.00
2022-11-24T11:05:25.829Z,332.00
2022-11-24T11:06:25.821Z,276.00
2022-11-24T11:07:25.886Z,456.00
2022-11-24T11:08:25.812Z,268.00
2022-11-24T11:09:25.822Z,260.00
2022-11-24T11:10:25.806Z,272.00
2022-11-24T11:11:25.803Z,280.00
2022-11-24T11:12:43.317Z,328.00
2022-11-24T11:13:25.802Z,244.00
2022-11-24T11:14:25.789Z,296.00
2022-11-24T11:15:25.786Z,220.00
2022-11-24T11:16:25.875Z,192.00
2022-11-24T11:17:25.777Z,172.00
2022-11-24T11:18:25.773Z,208.00
2022-11-24T11:19:48.015Z,212.00
2022-11-24T11:20:25.792Z,236.00
2022-11-24T11:21:25.762Z,188.00
2022-11-24T11:22:25.764Z,248.00
2022-11-24T11:23:25.754Z,344.00
2022-11-24T11:24:25.748Z,220.00
2022-11-24T11:25:25.743Z,200.00
2022-11-24T11:26:25.740Z,236.00
2022-11-24T11:27:25.739Z,212.00
2022-11-24T11:28:25.733Z,200.00
2022-11-24T11:31:25.720Z,232.00
2022-11-24T11:34:30.161Z,252.00
2022-11-24T11:35:25.714Z,184.00
2022-11-24T11:36:25.722Z,184.00
2022-11-24T11:37:25.697Z,196.00
2022-11-24T11:38:25.687Z,216.00
2022-11-24T11:39:25.690Z,244.00
2022-11-24T11:40:25.687Z,328.00
2022-11-24T11:41:25.682Z,284.00
2022-11-24T11:42:59.883Z,200.00
2022-11-24T11:43:25.672Z,184.00
2022-11-24T11:44:25.667Z,212.00
2022-11-24T11:45:25.753Z,276.00
2022-11-24T11:46:25.744Z,288.00
2022-11-24T11:47:25.658Z,268.00
2022-11-24T11:48:25.649Z,300.00
2022-11-24T11:49:25.645Z,264.00
2022-11-24T11:50:25.682Z,280.00
2022-11-24T11:51:25.810Z,228.00
2022-11-24T11:52:25.662Z,192.00
2022-11-24T11:53:25.629Z,212.00
2022-11-24T11:54:25.626Z,240.00
2022-11-24T11:55:25.619Z,224.00
2022-11-24T11:56:25.623Z,224.00
2022-11-24T11:57:25.617Z,196.00
2022-11-24T11:58:25.611Z,192.00
2022-11-24T11:59:25.618Z,172.00
2022-11-24T12:00:25.604Z,184.00
2022-11-24T12:01:25.595Z,188.00
2022-11-24T12:02:25.717Z,176.00
2022-11-24T12:03:25.719Z,164.00
2022-11-24T12:04:25.598Z,164.00
2022-11-24T12:05:25.579Z,160.00
2022-11-24T12:06:25.576Z,168.00
2022-11-24T12:07:25.635Z,196.00
2022-11-24T12:08:25.592Z,192.00
2022-11-24T12:09:25.565Z,172.00
2022-11-24T12:10:25.569Z,172.00
2022-11-24T12:11:25.556Z,184.00
2022-11-24T12:12:25.549Z,208.00
2022-11-24T12:13:25.545Z,212.00
2022-11-24T12:14:25.550Z,176.00
2022-11-24T12:15:25.539Z,160.00
2022-11-24T12:16:25.628Z,152.00
2022-11-24T12:17:25.531Z,152.00
2022-11-24T12:18:55.724Z,152.00
2022-11-24T12:19:25.521Z,152.00
2022-11-24T12:20:25.525Z,152.00
2022-11-24T12:21:26.822Z,144.00
2022-11-24T12:22:25.512Z,176.00
2022-11-24T12:23:25.509Z,160.00
2022-11-24T12:24:25.573Z,228.00
2022-11-24T12:25:25.499Z,156.00
2022-11-24T12:26:25.494Z,140.00
2022-11-24T12:27:25.495Z,148.00
2022-11-24T12:28:25.488Z,156.00
2022-11-24T12:29:25.482Z,152.00
2022-11-24T12:30:25.481Z,148.00
2022-11-24T12:31:25.592Z,144.00
2022-11-24T12:32:25.473Z,164.00
2022-11-24T12:33:25.468Z,156.00
2022-11-24T12:34:25.466Z,168.00
2022-11-24T12:35:25.458Z,136.00
2022-11-24T12:36:25.454Z,132.00
2022-11-24T12:37:25.452Z,132.00
2022-11-24T12:38:25.446Z,132.00
2022-11-24T12:39:25.442Z,140.00
2022-11-24T12:40:25.464Z,152.00
2022-11-24T12:41:41.322Z,144.00
2022-11-24T12:42:25.430Z,132.00
2022-11-24T12:43:25.425Z,128.00
2022-11-24T12:44:25.423Z,132.00
2022-11-24T12:45:25.427Z,176.00
2022-11-24T12:46:25.972Z,132.00
2022-11-24T12:47:25.409Z,128.00
2022-11-24T12:48:25.410Z,124.00
2022-11-24T12:49:25.403Z,124.00
2022-11-24T12:50:25.400Z,136.00
2022-11-24T12:51:25.397Z,144.00
2022-11-24T12:52:25.394Z,128.00
2022-11-24T12:53:25.401Z,124.00
2022-11-24T12:54:25.387Z,124.00
2022-11-24T12:55:25.380Z,124.00
2022-11-24T12:56:25.396Z,120.00
2022-11-24T12:57:25.370Z,120.00
2022-11-24T12:58:25.372Z,124.00
2022-11-24T12:59:25.365Z,120.00
2022-11-24T13:00:25.360Z,120.00
2022-11-24T13:01:25.511Z,120.00
2022-11-24T13:02:25.473Z,116.00
2022-11-24T13:03:25.348Z,120.00